
<gpx xmlns="http://www.topografix.com/GPX/1/1" xmlns:gpxx="http://www.garmin.com/xmlschemas/GpxExtensions/v3" xmlns:xsi="http://www.w3.org/2001/XMLSchema-instance" version="1.1" creator="Adze - https://getadze.com/" xsi:schemaLocation="http://www.topografix.com/GPX/1/1 http://www.topografix.com/GPX/1/1/gpx.xsd http://www.garmin.com/xmlschemas/GpxExtensions/v3 http://www.garmin.com/xmlschemas/GpxExtensionsv3.xsd">
    <metadata>
        <name>Untitled Document</name>
        <link href="http://www.garmin.com"></link>
        <time>2018-03-08T10:47:51.102Z</time>
    </metadata>
    <wpt lon="99.341568" lat="14.027387">
        <time>2011-06-27T00:56:03Z</time>
        <name>Mida Resort</name>
        <cmt>GRAND GARDEN &amp; GOLF CLUB</cmt>
        <desc>GRAND GARDEN &amp; GOLF CLUB</desc>
        <sym>Lodging</sym>
        <extensions>
            <gpxx:WaypointExtension xmlns:gpxx="http://www.garmin.com/xmlschemas/GpxExtensions/v3">
                <gpxx:DisplayMode>SymbolOnly</gpxx:DisplayMode>
            </gpxx:WaypointExtension>
        </extensions>
    </wpt>
    <trk>
        <name>June 2011 - Sunday</name>
        <extensions>
            <gpxx:TrackExtension xmlns:gpxx="http://www.garmin.com/xmlschemas/GpxExtensions/v3">
                <gpxx:DisplayColor>Green</gpxx:DisplayColor>
            </gpxx:TrackExtension>
        </extensions>
        <trkseg>
            <trkpt lon="99.341021" lat="14.026676">
                <ele>119.820000</ele>
                <time>2011-06-26T03:02:06Z</time>
            </trkpt>
            <trkpt lon="99.341512" lat="14.026685">
                <ele>118.380000</ele>
                <time>2011-06-26T03:02:24Z</time>
            </trkpt>
            <trkpt lon="99.341518" lat="14.025921">
                <ele>118.380000</ele>
                <time>2011-06-26T03:02:42Z</time>
            </trkpt>
            <trkpt lon="99.341468" lat="14.025860">
                <ele>117.900000</ele>
                <time>2011-06-26T03:02:44Z</time>
            </trkpt>
            <trkpt lon="99.339829" lat="14.025682">
                <ele>121.260000</ele>
                <time>2011-06-26T03:03:23Z</time>
            </trkpt>
            <trkpt lon="99.339534" lat="14.024371">
                <ele>118.380000</ele>
                <time>2011-06-26T03:03:56Z</time>
            </trkpt>
            <trkpt lon="99.338990" lat="14.022925">
                <ele>117.900000</ele>
                <time>2011-06-26T03:04:26Z</time>
            </trkpt>
            <trkpt lon="99.338916" lat="14.021497">
                <ele>117.420000</ele>
                <time>2011-06-26T03:04:56Z</time>
            </trkpt>
            <trkpt lon="99.338920" lat="14.020685">
                <ele>115.500000</ele>
                <time>2011-06-26T03:05:10Z</time>
            </trkpt>
            <trkpt lon="99.338279" lat="14.019584">
                <ele>116.940000</ele>
                <time>2011-06-26T03:05:38Z</time>
            </trkpt>
            <trkpt lon="99.338202" lat="14.019411">
                <ele>115.980000</ele>
                <time>2011-06-26T03:05:42Z</time>
            </trkpt>
            <trkpt lon="99.338350" lat="14.018869">
                <ele>118.860000</ele>
                <time>2011-06-26T03:06:01Z</time>
            </trkpt>
            <trkpt lon="99.336762" lat="14.018231">
                <ele>127.510000</ele>
                <time>2011-06-26T03:07:06Z</time>
            </trkpt>
            <trkpt lon="99.336362" lat="14.017662">
                <ele>130.400000</ele>
                <time>2011-06-26T03:07:32Z</time>
            </trkpt>
            <trkpt lon="99.336127" lat="14.017476">
                <ele>130.880000</ele>
                <time>2011-06-26T03:07:41Z</time>
            </trkpt>
            <trkpt lon="99.336178" lat="14.016736">
                <ele>127.510000</ele>
                <time>2011-06-26T03:08:06Z</time>
            </trkpt>
            <trkpt lon="99.335708" lat="14.015772">
                <ele>127.990000</ele>
                <time>2011-06-26T03:08:53Z</time>
            </trkpt>
            <trkpt lon="99.335861" lat="14.015596">
                <ele>129.920000</ele>
                <time>2011-06-26T03:09:02Z</time>
            </trkpt>
            <trkpt lon="99.336011" lat="14.015499">
                <ele>128.950000</ele>
                <time>2011-06-26T03:09:17Z</time>
            </trkpt>
            <trkpt lon="99.335969" lat="14.015374">
                <ele>129.430000</ele>
                <time>2011-06-26T03:09:33Z</time>
            </trkpt>
            <trkpt lon="99.336826" lat="14.015239">
                <ele>121.260000</ele>
                <time>2011-06-26T03:09:56Z</time>
            </trkpt>
            <trkpt lon="99.337315" lat="14.014894">
                <ele>118.860000</ele>
                <time>2011-06-26T03:10:09Z</time>
            </trkpt>
            <trkpt lon="99.337314" lat="14.014831">
                <ele>118.380000</ele>
                <time>2011-06-26T03:10:12Z</time>
            </trkpt>
            <trkpt lon="99.337171" lat="14.013839">
                <ele>113.090000</ele>
                <time>2011-06-26T03:10:43Z</time>
            </trkpt>
            <trkpt lon="99.337055" lat="14.013759">
                <ele>112.610000</ele>
                <time>2011-06-26T03:10:50Z</time>
            </trkpt>
            <trkpt lon="99.336824" lat="14.013993">
                <ele>115.980000</ele>
                <time>2011-06-26T03:11:01Z</time>
            </trkpt>
            <trkpt lon="99.336156" lat="14.013983">
                <ele>118.860000</ele>
                <time>2011-06-26T03:11:30Z</time>
            </trkpt>
            <trkpt lon="99.336232" lat="14.013618">
                <ele>114.530000</ele>
                <time>2011-06-26T03:11:50Z</time>
            </trkpt>
            <trkpt lon="99.336503" lat="14.013353">
                <ele>111.170000</ele>
                <time>2011-06-26T03:12:01Z</time>
            </trkpt>
            <trkpt lon="99.336567" lat="14.012539">
                <ele>104.440000</ele>
                <time>2011-06-26T03:12:24Z</time>
            </trkpt>
            <trkpt lon="99.336464" lat="14.011822">
                <ele>102.520000</ele>
                <time>2011-06-26T03:12:42Z</time>
            </trkpt>
            <trkpt lon="99.335881" lat="14.010402">
                <ele>100.600000</ele>
                <time>2011-06-26T03:13:14Z</time>
            </trkpt>
            <trkpt lon="99.335938" lat="14.010039">
                <ele>100.600000</ele>
                <time>2011-06-26T03:13:24Z</time>
            </trkpt>
            <trkpt lon="99.336171" lat="14.009933">
                <ele>100.600000</ele>
                <time>2011-06-26T03:13:30Z</time>
            </trkpt>
            <trkpt lon="99.336507" lat="14.009669">
                <ele>97.710000</ele>
                <time>2011-06-26T03:13:38Z</time>
            </trkpt>
            <trkpt lon="99.336533" lat="14.009494">
                <ele>98.670000</ele>
                <time>2011-06-26T03:13:42Z</time>
            </trkpt>
            <trkpt lon="99.336319" lat="14.008910">
                <ele>100.110000</ele>
                <time>2011-06-26T03:13:57Z</time>
            </trkpt>
            <trkpt lon="99.335580" lat="14.008328">
                <ele>102.040000</ele>
                <time>2011-06-26T03:14:22Z</time>
            </trkpt>
            <trkpt lon="99.335052" lat="14.008068">
                <ele>104.440000</ele>
                <time>2011-06-26T03:14:39Z</time>
            </trkpt>
            <trkpt lon="99.334312" lat="14.008053">
                <ele>109.250000</ele>
                <time>2011-06-26T03:15:19Z</time>
            </trkpt>
            <trkpt lon="99.331554" lat="14.010241">
                <ele>120.780000</ele>
                <time>2011-06-26T03:17:45Z</time>
            </trkpt>
            <trkpt lon="99.330776" lat="14.010557">
                <ele>123.190000</ele>
                <time>2011-06-26T03:18:24Z</time>
            </trkpt>
            <trkpt lon="99.330430" lat="14.010484">
                <ele>126.070000</ele>
                <time>2011-06-26T03:18:54Z</time>
            </trkpt>
            <trkpt lon="99.329957" lat="14.010566">
                <ele>127.990000</ele>
                <time>2011-06-26T03:19:21Z</time>
            </trkpt>
            <trkpt lon="99.329649" lat="14.010553">
                <ele>127.510000</ele>
                <time>2011-06-26T03:19:31Z</time>
            </trkpt>
            <trkpt lon="99.329243" lat="14.010283">
                <ele>122.220000</ele>
                <time>2011-06-26T03:19:47Z</time>
            </trkpt>
            <trkpt lon="99.329011" lat="14.010341">
                <ele>120.780000</ele>
                <time>2011-06-26T03:19:53Z</time>
            </trkpt>
            <trkpt lon="99.328527" lat="14.010884">
                <ele>127.990000</ele>
                <time>2011-06-26T03:21:39Z</time>
            </trkpt>
            <trkpt lon="99.327745" lat="14.012557">
                <ele>136.640000</ele>
                <time>2011-06-26T03:22:58Z</time>
            </trkpt>
            <trkpt lon="99.327605" lat="14.013544">
                <ele>142.410000</ele>
                <time>2011-06-26T03:23:42Z</time>
            </trkpt>
            <trkpt lon="99.326265" lat="14.014090">
                <ele>146.260000</ele>
                <time>2011-06-26T03:24:36Z</time>
            </trkpt>
            <trkpt lon="99.326007" lat="14.014431">
                <ele>149.140000</ele>
                <time>2011-06-26T03:24:58Z</time>
            </trkpt>
            <trkpt lon="99.325431" lat="14.014055">
                <ele>144.820000</ele>
                <time>2011-06-26T03:25:50Z</time>
            </trkpt>
            <trkpt lon="99.324693" lat="14.014011">
                <ele>160.680000</ele>
                <time>2011-06-26T03:28:04Z</time>
            </trkpt>
            <trkpt lon="99.324358" lat="14.013895">
                <ele>159.720000</ele>
                <time>2011-06-26T03:30:20Z</time>
            </trkpt>
            <trkpt lon="99.324604" lat="14.013699">
                <ele>159.720000</ele>
                <time>2011-06-26T03:31:15Z</time>
            </trkpt>
            <trkpt lon="99.324862" lat="14.013582">
                <ele>156.350000</ele>
                <time>2011-06-26T03:32:16Z</time>
            </trkpt>
            <trkpt lon="99.325110" lat="14.013343">
                <ele>151.060000</ele>
                <time>2011-06-26T03:32:26Z</time>
            </trkpt>
            <trkpt lon="99.325561" lat="14.012509">
                <ele>140.010000</ele>
                <time>2011-06-26T03:32:48Z</time>
            </trkpt>
            <trkpt lon="99.326244" lat="14.011846">
                <ele>140.490000</ele>
                <time>2011-06-26T03:33:14Z</time>
            </trkpt>
            <trkpt lon="99.326546" lat="14.011230">
                <ele>141.930000</ele>
                <time>2011-06-26T03:33:34Z</time>
            </trkpt>
            <trkpt lon="99.327057" lat="14.010584">
                <ele>136.640000</ele>
                <time>2011-06-26T03:33:52Z</time>
            </trkpt>
            <trkpt lon="99.327315" lat="14.010367">
                <ele>133.280000</ele>
                <time>2011-06-26T03:33:58Z</time>
            </trkpt>
            <trkpt lon="99.327806" lat="14.009516">
                <ele>130.880000</ele>
                <time>2011-06-26T03:34:15Z</time>
            </trkpt>
            <trkpt lon="99.328199" lat="14.009062">
                <ele>127.510000</ele>
                <time>2011-06-26T03:34:25Z</time>
            </trkpt>
            <trkpt lon="99.328661" lat="14.008740">
                <ele>128.950000</ele>
                <time>2011-06-26T03:34:36Z</time>
            </trkpt>
            <trkpt lon="99.328892" lat="14.007669">
                <ele>134.720000</ele>
                <time>2011-06-26T03:35:28Z</time>
            </trkpt>
            <trkpt lon="99.329204" lat="14.007288">
                <ele>135.200000</ele>
                <time>2011-06-26T03:35:51Z</time>
            </trkpt>
            <trkpt lon="99.330498" lat="14.006936">
                <ele>125.110000</ele>
                <time>2011-06-26T03:36:29Z</time>
            </trkpt>
            <trkpt lon="99.331169" lat="14.006212">
                <ele>122.710000</ele>
                <time>2011-06-26T03:37:21Z</time>
            </trkpt>
            <trkpt lon="99.331445" lat="14.005731">
                <ele>116.940000</ele>
                <time>2011-06-26T03:37:41Z</time>
            </trkpt>
            <trkpt lon="99.331546" lat="14.004688">
                <ele>112.610000</ele>
                <time>2011-06-26T03:38:08Z</time>
            </trkpt>
            <trkpt lon="99.331769" lat="14.004040">
                <ele>111.170000</ele>
                <time>2011-06-26T03:38:22Z</time>
            </trkpt>
            <trkpt lon="99.332099" lat="14.003754">
                <ele>107.320000</ele>
                <time>2011-06-26T03:38:31Z</time>
            </trkpt>
            <trkpt lon="99.332150" lat="14.003432">
                <ele>107.320000</ele>
                <time>2011-06-26T03:38:40Z</time>
            </trkpt>
            <trkpt lon="99.332234" lat="14.003263">
                <ele>105.880000</ele>
                <time>2011-06-26T03:38:51Z</time>
            </trkpt>
            <trkpt lon="99.332166" lat="14.002810">
                <ele>103.960000</ele>
                <time>2011-06-26T03:39:07Z</time>
            </trkpt>
            <trkpt lon="99.331520" lat="14.001461">
                <ele>100.110000</ele>
                <time>2011-06-26T03:39:45Z</time>
            </trkpt>
            <trkpt lon="99.330906" lat="14.000834">
                <ele>101.560000</ele>
                <time>2011-06-26T03:40:11Z</time>
            </trkpt>
            <trkpt lon="99.330182" lat="14.000415">
                <ele>102.040000</ele>
                <time>2011-06-26T03:40:33Z</time>
            </trkpt>
            <trkpt lon="99.329914" lat="13.999777">
                <ele>96.750000</ele>
                <time>2011-06-26T03:40:47Z</time>
            </trkpt>
            <trkpt lon="99.329923" lat="13.999551">
                <ele>94.830000</ele>
                <time>2011-06-26T03:40:53Z</time>
            </trkpt>
            <trkpt lon="99.330126" lat="13.999312">
                <ele>93.390000</ele>
                <time>2011-06-26T03:41:00Z</time>
            </trkpt>
            <trkpt lon="99.330100" lat="13.999047">
                <ele>91.460000</ele>
                <time>2011-06-26T03:41:07Z</time>
            </trkpt>
            <trkpt lon="99.328516" lat="13.999079">
                <ele>90.500000</ele>
                <time>2011-06-26T03:41:44Z</time>
            </trkpt>
            <trkpt lon="99.326965" lat="13.998901">
                <ele>82.330000</ele>
                <time>2011-06-26T03:42:16Z</time>
            </trkpt>
            <trkpt lon="99.325923" lat="13.999287">
                <ele>82.810000</ele>
                <time>2011-06-26T03:42:42Z</time>
            </trkpt>
            <trkpt lon="99.324990" lat="14.000030">
                <ele>82.810000</ele>
                <time>2011-06-26T03:43:08Z</time>
            </trkpt>
            <trkpt lon="99.324669" lat="14.000115">
                <ele>82.810000</ele>
                <time>2011-06-26T03:43:15Z</time>
            </trkpt>
            <trkpt lon="99.324109" lat="14.000521">
                <ele>83.770000</ele>
                <time>2011-06-26T03:43:34Z</time>
            </trkpt>
            <trkpt lon="99.324034" lat="14.000546">
                <ele>83.770000</ele>
                <time>2011-06-26T03:43:36Z</time>
            </trkpt>
            <trkpt lon="99.323340" lat="14.000679">
                <ele>79.930000</ele>
                <time>2011-06-26T03:43:53Z</time>
            </trkpt>
            <trkpt lon="99.322941" lat="14.000560">
                <ele>76.080000</ele>
                <time>2011-06-26T03:44:02Z</time>
            </trkpt>
            <trkpt lon="99.322677" lat="14.000705">
                <ele>78.480000</ele>
                <time>2011-06-26T03:44:10Z</time>
            </trkpt>
            <trkpt lon="99.322725" lat="14.000897">
                <ele>79.450000</ele>
                <time>2011-06-26T03:44:18Z</time>
            </trkpt>
            <trkpt lon="99.322998" lat="14.001078">
                <ele>80.410000</ele>
                <time>2011-06-26T03:44:29Z</time>
            </trkpt>
            <trkpt lon="99.323181" lat="14.001190">
                <ele>80.410000</ele>
                <time>2011-06-26T03:44:38Z</time>
            </trkpt>
            <trkpt lon="99.323381" lat="14.002189">
                <ele>90.020000</ele>
                <time>2011-06-26T03:45:38Z</time>
            </trkpt>
            <trkpt lon="99.322946" lat="14.002848">
                <ele>90.020000</ele>
                <time>2011-06-26T03:46:04Z</time>
            </trkpt>
            <trkpt lon="99.322798" lat="14.003839">
                <ele>95.790000</ele>
                <time>2011-06-26T03:46:59Z</time>
            </trkpt>
            <trkpt lon="99.322724" lat="14.004107">
                <ele>95.790000</ele>
                <time>2011-06-26T03:47:10Z</time>
            </trkpt>
            <trkpt lon="99.322278" lat="14.004579">
                <ele>94.350000</ele>
                <time>2011-06-26T03:47:28Z</time>
            </trkpt>
            <trkpt lon="99.322046" lat="14.004596">
                <ele>93.870000</ele>
                <time>2011-06-26T03:48:19Z</time>
            </trkpt>
            <trkpt lon="99.322320" lat="14.005164">
                <ele>97.710000</ele>
                <time>2011-06-26T03:48:48Z</time>
            </trkpt>
            <trkpt lon="99.322773" lat="14.005451">
                <ele>101.560000</ele>
                <time>2011-06-26T03:49:17Z</time>
            </trkpt>
            <trkpt lon="99.322905" lat="14.005549">
                <ele>102.520000</ele>
                <time>2011-06-26T03:49:26Z</time>
            </trkpt>
            <trkpt lon="99.323284" lat="14.006016">
                <ele>103.960000</ele>
                <time>2011-06-26T03:49:53Z</time>
            </trkpt>
            <trkpt lon="99.323201" lat="14.006859">
                <ele>109.250000</ele>
                <time>2011-06-26T03:50:38Z</time>
            </trkpt>
            <trkpt lon="99.322589" lat="14.007223">
                <ele>112.610000</ele>
                <time>2011-06-26T03:51:11Z</time>
            </trkpt>
            <trkpt lon="99.321725" lat="14.007138">
                <ele>111.650000</ele>
                <time>2011-06-26T03:51:42Z</time>
            </trkpt>
            <trkpt lon="99.321674" lat="14.005878">
                <ele>105.400000</ele>
                <time>2011-06-26T03:52:16Z</time>
            </trkpt>
            <trkpt lon="99.321662" lat="14.005173">
                <ele>97.710000</ele>
                <time>2011-06-26T03:52:28Z</time>
            </trkpt>
            <trkpt lon="99.320940" lat="14.003922">
                <ele>90.020000</ele>
                <time>2011-06-26T03:53:01Z</time>
            </trkpt>
            <trkpt lon="99.321417" lat="14.001710">
                <ele>82.810000</ele>
                <time>2011-06-26T03:53:41Z</time>
            </trkpt>
            <trkpt lon="99.321355" lat="14.001422">
                <ele>82.330000</ele>
                <time>2011-06-26T03:53:46Z</time>
            </trkpt>
            <trkpt lon="99.319975" lat="14.000627">
                <ele>78.480000</ele>
                <time>2011-06-26T03:54:22Z</time>
            </trkpt>
            <trkpt lon="99.319815" lat="14.000773">
                <ele>78.480000</ele>
                <time>2011-06-26T03:54:35Z</time>
            </trkpt>
            <trkpt lon="99.319997" lat="14.000060">
                <ele>77.040000</ele>
                <time>2011-06-26T03:55:25Z</time>
            </trkpt>
            <trkpt lon="99.319578" lat="13.999635">
                <ele>75.600000</ele>
                <time>2011-06-26T03:55:38Z</time>
            </trkpt>
            <trkpt lon="99.319234" lat="13.998950">
                <ele>73.200000</ele>
                <time>2011-06-26T03:55:52Z</time>
            </trkpt>
            <trkpt lon="99.318724" lat="13.996741">
                <ele>68.870000</ele>
                <time>2011-06-26T03:56:30Z</time>
            </trkpt>
            <trkpt lon="99.318325" lat="13.996142">
                <ele>66.950000</ele>
                <time>2011-06-26T03:56:43Z</time>
            </trkpt>
            <trkpt lon="99.320272" lat="13.995818">
                <ele>67.910000</ele>
                <time>2011-06-26T03:57:27Z</time>
            </trkpt>
            <trkpt lon="99.319970" lat="13.995862">
                <ele>67.910000</ele>
                <time>2011-06-26T03:57:45Z</time>
            </trkpt>
            <trkpt lon="99.319691" lat="13.994994">
                <ele>66.950000</ele>
                <time>2011-06-26T03:58:24Z</time>
            </trkpt>
            <trkpt lon="99.321237" lat="13.994628">
                <ele>64.070000</ele>
                <time>2011-06-26T03:59:03Z</time>
            </trkpt>
            <trkpt lon="99.320654" lat="13.993610">
                <ele>62.140000</ele>
                <time>2011-06-26T03:59:29Z</time>
            </trkpt>
            <trkpt lon="99.320628" lat="13.993203">
                <ele>62.140000</ele>
                <time>2011-06-26T03:59:38Z</time>
            </trkpt>
            <trkpt lon="99.320557" lat="13.992872">
                <ele>61.180000</ele>
                <time>2011-06-26T03:59:45Z</time>
            </trkpt>
            <trkpt lon="99.321292" lat="13.992632">
                <ele>60.700000</ele>
                <time>2011-06-26T04:00:01Z</time>
            </trkpt>
            <trkpt lon="99.321555" lat="13.992294">
                <ele>60.220000</ele>
                <time>2011-06-26T04:00:14Z</time>
            </trkpt>
            <trkpt lon="99.321535" lat="13.992294">
                <ele>59.740000</ele>
                <time>2011-06-26T04:00:22Z</time>
            </trkpt>
            <trkpt lon="99.321679" lat="13.992442">
                <ele>59.740000</ele>
                <time>2011-06-26T04:00:48Z</time>
            </trkpt>
            <trkpt lon="99.321890" lat="13.992306">
                <ele>59.740000</ele>
                <time>2011-06-26T04:01:06Z</time>
            </trkpt>
            <trkpt lon="99.322087" lat="13.992549">
                <ele>60.700000</ele>
                <time>2011-06-26T04:01:40Z</time>
            </trkpt>
            <trkpt lon="99.322096" lat="13.992580">
                <ele>60.220000</ele>
                <time>2011-06-26T04:01:42Z</time>
            </trkpt>
            <trkpt lon="99.322437" lat="13.992545">
                <ele>60.700000</ele>
                <time>2011-06-26T04:01:58Z</time>
            </trkpt>
            <trkpt lon="99.322539" lat="13.992387">
                <ele>60.700000</ele>
                <time>2011-06-26T04:02:06Z</time>
            </trkpt>
            <trkpt lon="99.322314" lat="13.992022">
                <ele>60.220000</ele>
                <time>2011-06-26T04:02:15Z</time>
            </trkpt>
            <trkpt lon="99.322154" lat="13.990907">
                <ele>59.740000</ele>
                <time>2011-06-26T04:02:38Z</time>
            </trkpt>
            <trkpt lon="99.322066" lat="13.990562">
                <ele>58.780000</ele>
                <time>2011-06-26T04:02:45Z</time>
            </trkpt>
            <trkpt lon="99.322172" lat="13.989472">
                <ele>58.780000</ele>
                <time>2011-06-26T04:03:15Z</time>
            </trkpt>
            <trkpt lon="99.322457" lat="13.989156">
                <ele>58.300000</ele>
                <time>2011-06-26T04:04:16Z</time>
            </trkpt>
            <trkpt lon="99.322457" lat="13.989045">
                <ele>57.820000</ele>
                <time>2011-06-26T04:04:28Z</time>
            </trkpt>
            <trkpt lon="99.322246" lat="13.988669">
                <ele>57.340000</ele>
                <time>2011-06-26T04:04:40Z</time>
            </trkpt>
            <trkpt lon="99.321999" lat="13.988501">
                <ele>58.780000</ele>
                <time>2011-06-26T04:04:52Z</time>
            </trkpt>
            <trkpt lon="99.323238" lat="13.985900">
                <ele>60.220000</ele>
                <time>2011-06-26T04:06:00Z</time>
            </trkpt>
            <trkpt lon="99.323107" lat="13.985773">
                <ele>61.180000</ele>
                <time>2011-06-26T04:06:06Z</time>
            </trkpt>
            <trkpt lon="99.321118" lat="13.985190">
                <ele>59.260000</ele>
                <time>2011-06-26T04:06:47Z</time>
            </trkpt>
            <trkpt lon="99.321019" lat="13.985009">
                <ele>59.260000</ele>
                <time>2011-06-26T04:06:53Z</time>
            </trkpt>
            <trkpt lon="99.322286" lat="13.981116">
                <ele>57.820000</ele>
                <time>2011-06-26T04:08:15Z</time>
            </trkpt>
            <trkpt lon="99.322497" lat="13.980551">
                <ele>56.370000</ele>
                <time>2011-06-26T04:08:30Z</time>
            </trkpt>
            <trkpt lon="99.322632" lat="13.980499">
                <ele>57.340000</ele>
                <time>2011-06-26T04:08:36Z</time>
            </trkpt>
            <trkpt lon="99.322703" lat="13.980504">
                <ele>56.860000</ele>
                <time>2011-06-26T04:08:38Z</time>
            </trkpt>
            <trkpt lon="99.322672" lat="13.980159">
                <ele>55.410000</ele>
                <time>2011-06-26T04:08:56Z</time>
            </trkpt>
            <trkpt lon="99.322866" lat="13.979703">
                <ele>56.370000</ele>
                <time>2011-06-26T04:09:32Z</time>
            </trkpt>
            <trkpt lon="99.323430" lat="13.979390">
                <ele>57.340000</ele>
                <time>2011-06-26T04:10:11Z</time>
            </trkpt>
            <trkpt lon="99.323410" lat="13.979381">
                <ele>54.450000</ele>
                <time>2011-06-26T04:23:17Z</time>
            </trkpt>
            <trkpt lon="99.323685" lat="13.979348">
                <ele>55.410000</ele>
                <time>2011-06-26T04:26:41Z</time>
            </trkpt>
            <trkpt lon="99.324225" lat="13.978648">
                <ele>55.410000</ele>
                <time>2011-06-26T04:27:01Z</time>
            </trkpt>
            <trkpt lon="99.324990" lat="13.978788">
                <ele>56.370000</ele>
                <time>2011-06-26T04:27:29Z</time>
            </trkpt>
            <trkpt lon="99.325223" lat="13.977933">
                <ele>57.340000</ele>
                <time>2011-06-26T04:27:59Z</time>
            </trkpt>
            <trkpt lon="99.325595" lat="13.977201">
                <ele>55.890000</ele>
                <time>2011-06-26T04:28:19Z</time>
            </trkpt>
            <trkpt lon="99.325574" lat="13.976359">
                <ele>55.410000</ele>
                <time>2011-06-26T04:28:39Z</time>
            </trkpt>
            <trkpt lon="99.325831" lat="13.976287">
                <ele>55.890000</ele>
                <time>2011-06-26T04:28:51Z</time>
            </trkpt>
            <trkpt lon="99.326207" lat="13.975718">
                <ele>55.890000</ele>
                <time>2011-06-26T04:29:06Z</time>
            </trkpt>
            <trkpt lon="99.326453" lat="13.974953">
                <ele>52.050000</ele>
                <time>2011-06-26T04:29:19Z</time>
            </trkpt>
            <trkpt lon="99.327077" lat="13.974273">
                <ele>53.490000</ele>
                <time>2011-06-26T04:29:33Z</time>
            </trkpt>
            <trkpt lon="99.327753" lat="13.973194">
                <ele>51.570000</ele>
                <time>2011-06-26T04:29:51Z</time>
            </trkpt>
            <trkpt lon="99.327845" lat="13.973099">
                <ele>51.090000</ele>
                <time>2011-06-26T04:29:53Z</time>
            </trkpt>
            <trkpt lon="99.327960" lat="13.972745">
                <ele>51.570000</ele>
                <time>2011-06-26T04:29:59Z</time>
            </trkpt>
            <trkpt lon="99.327786" lat="13.972350">
                <ele>51.090000</ele>
                <time>2011-06-26T04:30:08Z</time>
            </trkpt>
            <trkpt lon="99.327650" lat="13.972311">
                <ele>53.010000</ele>
                <time>2011-06-26T04:30:16Z</time>
            </trkpt>
            <trkpt lon="99.327680" lat="13.971944">
                <ele>53.970000</ele>
                <time>2011-06-26T04:30:30Z</time>
            </trkpt>
            <trkpt lon="99.327792" lat="13.971082">
                <ele>53.010000</ele>
                <time>2011-06-26T04:30:54Z</time>
            </trkpt>
            <trkpt lon="99.327286" lat="13.970679">
                <ele>52.050000</ele>
                <time>2011-06-26T04:31:11Z</time>
            </trkpt>
            <trkpt lon="99.327340" lat="13.970387">
                <ele>52.050000</ele>
                <time>2011-06-26T04:31:19Z</time>
            </trkpt>
            <trkpt lon="99.327084" lat="13.969327">
                <ele>52.530000</ele>
                <time>2011-06-26T04:31:47Z</time>
            </trkpt>
            <trkpt lon="99.326953" lat="13.969065">
                <ele>52.530000</ele>
                <time>2011-06-26T04:37:31Z</time>
            </trkpt>
            <trkpt lon="99.327059" lat="13.968412">
                <ele>51.090000</ele>
                <time>2011-06-26T04:38:07Z</time>
            </trkpt>
            <trkpt lon="99.326808" lat="13.968331">
                <ele>53.490000</ele>
                <time>2011-06-26T04:38:29Z</time>
            </trkpt>
            <trkpt lon="99.326590" lat="13.967961">
                <ele>49.160000</ele>
                <time>2011-06-26T04:38:49Z</time>
            </trkpt>
            <trkpt lon="99.326290" lat="13.968097">
                <ele>50.130000</ele>
                <time>2011-06-26T04:39:03Z</time>
            </trkpt>
            <trkpt lon="99.326103" lat="13.967880">
                <ele>50.130000</ele>
                <time>2011-06-26T04:39:13Z</time>
            </trkpt>
            <trkpt lon="99.326925" lat="13.967149">
                <ele>49.650000</ele>
                <time>2011-06-26T04:39:48Z</time>
            </trkpt>
            <trkpt lon="99.327458" lat="13.967527">
                <ele>49.650000</ele>
                <time>2011-06-26T04:40:01Z</time>
            </trkpt>
            <trkpt lon="99.327876" lat="13.968036">
                <ele>48.680000</ele>
                <time>2011-06-26T04:40:13Z</time>
            </trkpt>
            <trkpt lon="99.328330" lat="13.969078">
                <ele>49.650000</ele>
                <time>2011-06-26T04:40:33Z</time>
            </trkpt>
            <trkpt lon="99.328582" lat="13.969234">
                <ele>48.680000</ele>
                <time>2011-06-26T04:40:38Z</time>
            </trkpt>
            <trkpt lon="99.329975" lat="13.969260">
                <ele>49.160000</ele>
                <time>2011-06-26T04:41:06Z</time>
            </trkpt>
            <trkpt lon="99.331025" lat="13.969723">
                <ele>49.650000</ele>
                <time>2011-06-26T04:41:29Z</time>
            </trkpt>
            <trkpt lon="99.331671" lat="13.969653">
                <ele>50.610000</ele>
                <time>2011-06-26T04:41:46Z</time>
            </trkpt>
            <trkpt lon="99.332178" lat="13.969854">
                <ele>50.610000</ele>
                <time>2011-06-26T04:41:57Z</time>
            </trkpt>
            <trkpt lon="99.333191" lat="13.969213">
                <ele>51.090000</ele>
                <time>2011-06-26T04:42:24Z</time>
            </trkpt>
            <trkpt lon="99.334245" lat="13.969418">
                <ele>51.570000</ele>
                <time>2011-06-26T04:42:50Z</time>
            </trkpt>
            <trkpt lon="99.334712" lat="13.969664">
                <ele>51.570000</ele>
                <time>2011-06-26T04:43:07Z</time>
            </trkpt>
            <trkpt lon="99.336087" lat="13.969802">
                <ele>51.090000</ele>
                <time>2011-06-26T04:43:55Z</time>
            </trkpt>
            <trkpt lon="99.336522" lat="13.970439">
                <ele>51.090000</ele>
                <time>2011-06-26T04:44:59Z</time>
            </trkpt>
            <trkpt lon="99.336706" lat="13.970341">
                <ele>51.570000</ele>
                <time>2011-06-26T04:45:10Z</time>
            </trkpt>
            <trkpt lon="99.336516" lat="13.970092">
                <ele>53.010000</ele>
                <time>2011-06-26T04:45:35Z</time>
            </trkpt>
            <trkpt lon="99.336489" lat="13.969969">
                <ele>51.090000</ele>
                <time>2011-06-26T04:45:50Z</time>
            </trkpt>
            <trkpt lon="99.336684" lat="13.970211">
                <ele>51.090000</ele>
                <time>2011-06-26T04:46:01Z</time>
            </trkpt>
            <trkpt lon="99.336987" lat="13.971234">
                <ele>52.050000</ele>
                <time>2011-06-26T04:46:32Z</time>
            </trkpt>
            <trkpt lon="99.336879" lat="13.972233">
                <ele>51.090000</ele>
                <time>2011-06-26T04:47:03Z</time>
            </trkpt>
            <trkpt lon="99.336985" lat="13.973504">
                <ele>51.570000</ele>
                <time>2011-06-26T04:47:31Z</time>
            </trkpt>
            <trkpt lon="99.336838" lat="13.974415">
                <ele>53.010000</ele>
                <time>2011-06-26T04:47:54Z</time>
            </trkpt>
            <trkpt lon="99.336813" lat="13.974669">
                <ele>52.530000</ele>
                <time>2011-06-26T04:48:01Z</time>
            </trkpt>
            <trkpt lon="99.336747" lat="13.974939">
                <ele>53.010000</ele>
                <time>2011-06-26T04:48:08Z</time>
            </trkpt>
            <trkpt lon="99.336087" lat="13.975624">
                <ele>54.930000</ele>
                <time>2011-06-26T04:48:45Z</time>
            </trkpt>
            <trkpt lon="99.335684" lat="13.975819">
                <ele>55.410000</ele>
                <time>2011-06-26T04:49:04Z</time>
            </trkpt>
            <trkpt lon="99.335819" lat="13.976340">
                <ele>55.410000</ele>
                <time>2011-06-26T04:49:27Z</time>
            </trkpt>
            <trkpt lon="99.338084" lat="13.979519">
                <ele>55.890000</ele>
                <time>2011-06-26T04:50:51Z</time>
            </trkpt>
            <trkpt lon="99.338302" lat="13.979552">
                <ele>54.930000</ele>
                <time>2011-06-26T04:50:57Z</time>
            </trkpt>
            <trkpt lon="99.339328" lat="13.978966">
                <ele>53.010000</ele>
                <time>2011-06-26T04:51:21Z</time>
            </trkpt>
            <trkpt lon="99.339774" lat="13.978821">
                <ele>52.050000</ele>
                <time>2011-06-26T04:51:29Z</time>
            </trkpt>
            <trkpt lon="99.339834" lat="13.978816">
                <ele>51.570000</ele>
                <time>2011-06-26T04:51:30Z</time>
            </trkpt>
            <trkpt lon="99.340294" lat="13.979100">
                <ele>51.090000</ele>
                <time>2011-06-26T04:51:41Z</time>
            </trkpt>
            <trkpt lon="99.340410" lat="13.979474">
                <ele>51.090000</ele>
                <time>2011-06-26T04:51:52Z</time>
            </trkpt>
            <trkpt lon="99.340682" lat="13.979624">
                <ele>51.090000</ele>
                <time>2011-06-26T04:52:01Z</time>
            </trkpt>
            <trkpt lon="99.341458" lat="13.981304">
                <ele>51.090000</ele>
                <time>2011-06-26T04:52:37Z</time>
            </trkpt>
            <trkpt lon="99.341506" lat="13.981747">
                <ele>53.490000</ele>
                <time>2011-06-26T04:52:49Z</time>
            </trkpt>
            <trkpt lon="99.341269" lat="13.981954">
                <ele>54.450000</ele>
                <time>2011-06-26T04:52:58Z</time>
            </trkpt>
            <trkpt lon="99.340932" lat="13.982607">
                <ele>53.970000</ele>
                <time>2011-06-26T04:53:17Z</time>
            </trkpt>
            <trkpt lon="99.340651" lat="13.983890">
                <ele>54.450000</ele>
                <time>2011-06-26T04:53:48Z</time>
            </trkpt>
            <trkpt lon="99.341495" lat="13.985661">
                <ele>58.300000</ele>
                <time>2011-06-26T04:54:42Z</time>
            </trkpt>
            <trkpt lon="99.342176" lat="13.986280">
                <ele>60.700000</ele>
                <time>2011-06-26T04:55:06Z</time>
            </trkpt>
            <trkpt lon="99.342445" lat="13.986951">
                <ele>63.580000</ele>
                <time>2011-06-26T04:55:31Z</time>
            </trkpt>
            <trkpt lon="99.343134" lat="13.987012">
                <ele>64.070000</ele>
                <time>2011-06-26T04:55:55Z</time>
            </trkpt>
            <trkpt lon="99.343659" lat="13.986229">
                <ele>65.030000</ele>
                <time>2011-06-26T04:56:21Z</time>
            </trkpt>
            <trkpt lon="99.344291" lat="13.985962">
                <ele>66.950000</ele>
                <time>2011-06-26T04:56:45Z</time>
            </trkpt>
            <trkpt lon="99.344516" lat="13.985961">
                <ele>67.910000</ele>
                <time>2011-06-26T04:56:56Z</time>
            </trkpt>
            <trkpt lon="99.344713" lat="13.986237">
                <ele>70.310000</ele>
                <time>2011-06-26T04:57:15Z</time>
            </trkpt>
            <trkpt lon="99.344730" lat="13.986289">
                <ele>70.310000</ele>
                <time>2011-06-26T04:57:19Z</time>
            </trkpt>
            <trkpt lon="99.344057" lat="13.988282">
                <ele>73.680000</ele>
                <time>2011-06-26T04:58:32Z</time>
            </trkpt>
            <trkpt lon="99.342543" lat="13.988831">
                <ele>70.790000</ele>
                <time>2011-06-26T04:59:06Z</time>
            </trkpt>
            <trkpt lon="99.342169" lat="13.988846">
                <ele>68.870000</ele>
                <time>2011-06-26T04:59:13Z</time>
            </trkpt>
            <trkpt lon="99.341174" lat="13.988471">
                <ele>64.550000</ele>
                <time>2011-06-26T04:59:31Z</time>
            </trkpt>
            <trkpt lon="99.340587" lat="13.988660">
                <ele>64.550000</ele>
                <time>2011-06-26T04:59:45Z</time>
            </trkpt>
            <trkpt lon="99.340298" lat="13.988944">
                <ele>65.510000</ele>
                <time>2011-06-26T04:59:56Z</time>
            </trkpt>
            <trkpt lon="99.339999" lat="13.989615">
                <ele>67.910000</ele>
                <time>2011-06-26T05:00:18Z</time>
            </trkpt>
            <trkpt lon="99.339203" lat="13.990073">
                <ele>68.870000</ele>
                <time>2011-06-26T05:00:43Z</time>
            </trkpt>
            <trkpt lon="99.339223" lat="13.990805">
                <ele>71.270000</ele>
                <time>2011-06-26T05:01:07Z</time>
            </trkpt>
            <trkpt lon="99.338770" lat="13.991072">
                <ele>72.240000</ele>
                <time>2011-06-26T05:01:26Z</time>
            </trkpt>
            <trkpt lon="99.338638" lat="13.991101">
                <ele>72.240000</ele>
                <time>2011-06-26T05:01:38Z</time>
            </trkpt>
            <trkpt lon="99.338592" lat="13.991298">
                <ele>73.680000</ele>
                <time>2011-06-26T05:02:04Z</time>
            </trkpt>
            <trkpt lon="99.338442" lat="13.991376">
                <ele>74.160000</ele>
                <time>2011-06-26T05:02:16Z</time>
            </trkpt>
            <trkpt lon="99.338283" lat="13.991359">
                <ele>74.160000</ele>
                <time>2011-06-26T05:02:35Z</time>
            </trkpt>
            <trkpt lon="99.337827" lat="13.991273">
                <ele>71.270000</ele>
                <time>2011-06-26T05:03:27Z</time>
            </trkpt>
            <trkpt lon="99.337438" lat="13.991297">
                <ele>68.390000</ele>
                <time>2011-06-26T05:03:52Z</time>
            </trkpt>
            <trkpt lon="99.337380" lat="13.991002">
                <ele>68.870000</ele>
                <time>2011-06-26T05:04:25Z</time>
            </trkpt>
            <trkpt lon="99.336677" lat="13.992009">
                <ele>67.430000</ele>
                <time>2011-06-26T05:05:02Z</time>
            </trkpt>
            <trkpt lon="99.332808" lat="13.988095">
                <ele>63.580000</ele>
                <time>2011-06-26T05:07:03Z</time>
            </trkpt>
            <trkpt lon="99.335055" lat="13.990464">
                <ele>66.470000</ele>
                <time>2011-06-26T05:08:10Z</time>
            </trkpt>
            <trkpt lon="99.334596" lat="13.990887">
                <ele>64.070000</ele>
                <time>2011-06-26T05:08:24Z</time>
            </trkpt>
            <trkpt lon="99.333855" lat="13.991249">
                <ele>65.990000</ele>
                <time>2011-06-26T05:08:45Z</time>
            </trkpt>
            <trkpt lon="99.334341" lat="13.992155">
                <ele>68.870000</ele>
                <time>2011-06-26T05:09:14Z</time>
            </trkpt>
            <trkpt lon="99.334554" lat="13.992160">
                <ele>67.910000</ele>
                <time>2011-06-26T05:09:21Z</time>
            </trkpt>
            <trkpt lon="99.334550" lat="13.993232">
                <ele>68.870000</ele>
                <time>2011-06-26T05:09:55Z</time>
            </trkpt>
            <trkpt lon="99.333611" lat="13.994351">
                <ele>72.240000</ele>
                <time>2011-06-26T05:10:42Z</time>
            </trkpt>
            <trkpt lon="99.333130" lat="13.994514">
                <ele>74.640000</ele>
                <time>2011-06-26T05:11:03Z</time>
            </trkpt>
            <trkpt lon="99.332978" lat="13.994677">
                <ele>74.160000</ele>
                <time>2011-06-26T05:11:11Z</time>
            </trkpt>
            <trkpt lon="99.333023" lat="13.994957">
                <ele>71.760000</ele>
                <time>2011-06-26T05:11:22Z</time>
            </trkpt>
            <trkpt lon="99.332051" lat="13.995190">
                <ele>76.080000</ele>
                <time>2011-06-26T05:12:14Z</time>
            </trkpt>
            <trkpt lon="99.331006" lat="13.995690">
                <ele>72.240000</ele>
                <time>2011-06-26T05:12:51Z</time>
            </trkpt>
            <trkpt lon="99.329833" lat="13.995540">
                <ele>70.310000</ele>
                <time>2011-06-26T05:13:17Z</time>
            </trkpt>
            <trkpt lon="99.329280" lat="13.996293">
                <ele>72.240000</ele>
                <time>2011-06-26T05:13:44Z</time>
            </trkpt>
            <trkpt lon="99.329601" lat="13.997507">
                <ele>78.970000</ele>
                <time>2011-06-26T05:14:54Z</time>
            </trkpt>
            <trkpt lon="99.330206" lat="13.998133">
                <ele>80.890000</ele>
                <time>2011-06-26T05:15:34Z</time>
            </trkpt>
            <trkpt lon="99.330676" lat="13.998963">
                <ele>84.250000</ele>
                <time>2011-06-26T05:16:18Z</time>
            </trkpt>
            <trkpt lon="99.331692" lat="13.999405">
                <ele>82.810000</ele>
                <time>2011-06-26T05:16:56Z</time>
            </trkpt>
            <trkpt lon="99.332387" lat="14.000284">
                <ele>81.370000</ele>
                <time>2011-06-26T05:17:43Z</time>
            </trkpt>
            <trkpt lon="99.332660" lat="14.000341">
                <ele>81.850000</ele>
                <time>2011-06-26T05:17:56Z</time>
            </trkpt>
            <trkpt lon="99.333066" lat="14.000790">
                <ele>85.210000</ele>
                <time>2011-06-26T05:18:52Z</time>
            </trkpt>
            <trkpt lon="99.333122" lat="14.000870">
                <ele>83.770000</ele>
                <time>2011-06-26T05:19:07Z</time>
            </trkpt>
            <trkpt lon="99.333022" lat="14.001250">
                <ele>84.730000</ele>
                <time>2011-06-26T05:19:38Z</time>
            </trkpt>
            <trkpt lon="99.333188" lat="14.001286">
                <ele>84.730000</ele>
                <time>2011-06-26T05:19:49Z</time>
            </trkpt>
            <trkpt lon="99.333418" lat="14.001946">
                <ele>86.660000</ele>
                <time>2011-06-26T05:20:18Z</time>
            </trkpt>
            <trkpt lon="99.333589" lat="14.001904">
                <ele>85.690000</ele>
                <time>2011-06-26T05:20:32Z</time>
            </trkpt>
            <trkpt lon="99.333612" lat="14.002604">
                <ele>87.620000</ele>
                <time>2011-06-26T05:21:02Z</time>
            </trkpt>
            <trkpt lon="99.333828" lat="14.002591">
                <ele>86.180000</ele>
                <time>2011-06-26T05:21:11Z</time>
            </trkpt>
            <trkpt lon="99.333823" lat="14.003914">
                <ele>91.460000</ele>
                <time>2011-06-26T05:22:08Z</time>
            </trkpt>
            <trkpt lon="99.334469" lat="14.003801">
                <ele>91.460000</ele>
                <time>2011-06-26T05:22:29Z</time>
            </trkpt>
            <trkpt lon="99.337334" lat="14.002633">
                <ele>85.210000</ele>
                <time>2011-06-26T05:23:22Z</time>
            </trkpt>
            <trkpt lon="99.337914" lat="14.004182">
                <ele>87.620000</ele>
                <time>2011-06-26T05:24:22Z</time>
            </trkpt>
            <trkpt lon="99.338006" lat="14.004576">
                <ele>85.690000</ele>
                <time>2011-06-26T05:24:31Z</time>
            </trkpt>
            <trkpt lon="99.338422" lat="14.004665">
                <ele>85.690000</ele>
                <time>2011-06-26T05:24:42Z</time>
            </trkpt>
            <trkpt lon="99.338667" lat="14.005189">
                <ele>85.690000</ele>
                <time>2011-06-26T05:24:56Z</time>
            </trkpt>
            <trkpt lon="99.339626" lat="14.009150">
                <ele>84.730000</ele>
                <time>2011-06-26T05:26:17Z</time>
            </trkpt>
            <trkpt lon="99.340227" lat="14.009413">
                <ele>85.690000</ele>
                <time>2011-06-26T05:26:30Z</time>
            </trkpt>
            <trkpt lon="99.341005" lat="14.009367">
                <ele>84.250000</ele>
                <time>2011-06-26T05:26:46Z</time>
            </trkpt>
            <trkpt lon="99.340817" lat="14.009871">
                <ele>85.690000</ele>
                <time>2011-06-26T05:27:12Z</time>
            </trkpt>
            <trkpt lon="99.340822" lat="14.010375">
                <ele>87.620000</ele>
                <time>2011-06-26T05:27:31Z</time>
            </trkpt>
            <trkpt lon="99.341369" lat="14.011022">
                <ele>90.020000</ele>
                <time>2011-06-26T05:27:59Z</time>
            </trkpt>
            <trkpt lon="99.341982" lat="14.011648">
                <ele>87.140000</ele>
                <time>2011-06-26T05:28:22Z</time>
            </trkpt>
            <trkpt lon="99.342260" lat="14.012324">
                <ele>88.580000</ele>
                <time>2011-06-26T05:28:40Z</time>
            </trkpt>
            <trkpt lon="99.342485" lat="14.012425">
                <ele>87.140000</ele>
                <time>2011-06-26T05:28:48Z</time>
            </trkpt>
            <trkpt lon="99.343161" lat="14.012331">
                <ele>85.690000</ele>
                <time>2011-06-26T05:29:07Z</time>
            </trkpt>
            <trkpt lon="99.343599" lat="14.011988">
                <ele>85.690000</ele>
                <time>2011-06-26T05:29:28Z</time>
            </trkpt>
            <trkpt lon="99.343211" lat="14.012321">
                <ele>85.690000</ele>
                <time>2011-06-26T05:30:20Z</time>
            </trkpt>
            <trkpt lon="99.342255" lat="14.012362">
                <ele>89.060000</ele>
                <time>2011-06-26T05:31:01Z</time>
            </trkpt>
            <trkpt lon="99.342234" lat="14.012566">
                <ele>89.540000</ele>
                <time>2011-06-26T05:31:32Z</time>
            </trkpt>
            <trkpt lon="99.341817" lat="14.012840">
                <ele>91.460000</ele>
                <time>2011-06-26T05:32:09Z</time>
            </trkpt>
            <trkpt lon="99.342371" lat="14.012409">
                <ele>88.100000</ele>
                <time>2011-06-26T05:32:34Z</time>
            </trkpt>
            <trkpt lon="99.343114" lat="14.012348">
                <ele>86.180000</ele>
                <time>2011-06-26T05:32:52Z</time>
            </trkpt>
            <trkpt lon="99.343693" lat="14.011948">
                <ele>85.210000</ele>
                <time>2011-06-26T05:33:06Z</time>
            </trkpt>
            <trkpt lon="99.344781" lat="14.011821">
                <ele>86.660000</ele>
                <time>2011-06-26T05:33:27Z</time>
            </trkpt>
            <trkpt lon="99.346244" lat="14.011286">
                <ele>81.850000</ele>
                <time>2011-06-26T05:33:57Z</time>
            </trkpt>
            <trkpt lon="99.346291" lat="14.011934">
                <ele>86.660000</ele>
                <time>2011-06-26T05:34:40Z</time>
            </trkpt>
            <trkpt lon="99.346955" lat="14.012142">
                <ele>83.290000</ele>
                <time>2011-06-26T05:35:04Z</time>
            </trkpt>
            <trkpt lon="99.346956" lat="14.012687">
                <ele>84.250000</ele>
                <time>2011-06-26T05:35:32Z</time>
            </trkpt>
            <trkpt lon="99.346956" lat="14.012752">
                <ele>78.480000</ele>
                <time>2011-06-26T05:35:41Z</time>
            </trkpt>
            <trkpt lon="99.346952" lat="14.012758">
                <ele>85.690000</ele>
                <time>2011-06-26T05:35:42Z</time>
            </trkpt>
            <trkpt lon="99.346948" lat="14.012764">
                <ele>85.690000</ele>
                <time>2011-06-26T05:35:43Z</time>
            </trkpt>
            <trkpt lon="99.346898" lat="14.012886">
                <ele>85.690000</ele>
                <time>2011-06-26T05:35:54Z</time>
            </trkpt>
            <trkpt lon="99.346813" lat="14.012924">
                <ele>86.660000</ele>
                <time>2011-06-26T05:36:04Z</time>
            </trkpt>
            <trkpt lon="99.345453" lat="14.013525">
                <ele>90.980000</ele>
                <time>2011-06-26T05:37:24Z</time>
            </trkpt>
            <trkpt lon="99.344299" lat="14.014648">
                <ele>92.900000</ele>
                <time>2011-06-26T05:38:22Z</time>
            </trkpt>
            <trkpt lon="99.345054" lat="14.015342">
                <ele>86.180000</ele>
                <time>2011-06-26T05:38:54Z</time>
            </trkpt>
            <trkpt lon="99.345841" lat="14.015828">
                <ele>89.540000</ele>
                <time>2011-06-26T05:39:42Z</time>
            </trkpt>
            <trkpt lon="99.345872" lat="14.015867">
                <ele>88.100000</ele>
                <time>2011-06-26T05:39:49Z</time>
            </trkpt>
            <trkpt lon="99.346670" lat="14.015626">
                <ele>86.660000</ele>
                <time>2011-06-26T05:40:15Z</time>
            </trkpt>
            <trkpt lon="99.347507" lat="14.015721">
                <ele>88.580000</ele>
                <time>2011-06-26T05:40:55Z</time>
            </trkpt>
            <trkpt lon="99.347392" lat="14.017093">
                <ele>94.830000</ele>
                <time>2011-06-26T05:42:18Z</time>
            </trkpt>
            <trkpt lon="99.347180" lat="14.020519">
                <ele>92.420000</ele>
                <time>2011-06-26T05:43:54Z</time>
            </trkpt>
            <trkpt lon="99.347317" lat="14.020547">
                <ele>93.390000</ele>
                <time>2011-06-26T05:44:00Z</time>
            </trkpt>
            <trkpt lon="99.347774" lat="14.020227">
                <ele>94.830000</ele>
                <time>2011-06-26T05:44:15Z</time>
            </trkpt>
            <trkpt lon="99.347899" lat="14.020292">
                <ele>95.790000</ele>
                <time>2011-06-26T05:44:21Z</time>
            </trkpt>
            <trkpt lon="99.347819" lat="14.020934">
                <ele>100.600000</ele>
                <time>2011-06-26T05:44:55Z</time>
            </trkpt>
            <trkpt lon="99.347776" lat="14.021339">
                <ele>99.150000</ele>
                <time>2011-06-26T05:45:10Z</time>
            </trkpt>
            <trkpt lon="99.347854" lat="14.021488">
                <ele>101.080000</ele>
                <time>2011-06-26T05:45:17Z</time>
            </trkpt>
            <trkpt lon="99.348101" lat="14.021581">
                <ele>103.000000</ele>
                <time>2011-06-26T05:45:27Z</time>
            </trkpt>
            <trkpt lon="99.349490" lat="14.022938">
                <ele>98.670000</ele>
                <time>2011-06-26T05:46:39Z</time>
            </trkpt>
            <trkpt lon="99.350055" lat="14.023250">
                <ele>100.110000</ele>
                <time>2011-06-26T05:46:58Z</time>
            </trkpt>
            <trkpt lon="99.350742" lat="14.024766">
                <ele>100.600000</ele>
                <time>2011-06-26T05:47:35Z</time>
            </trkpt>
            <trkpt lon="99.351156" lat="14.025720">
                <ele>99.630000</ele>
                <time>2011-06-26T05:47:56Z</time>
            </trkpt>
            <trkpt lon="99.351424" lat="14.025993">
                <ele>99.630000</ele>
                <time>2011-06-26T05:48:05Z</time>
            </trkpt>
            <trkpt lon="99.352079" lat="14.026348">
                <ele>98.190000</ele>
                <time>2011-06-26T05:48:20Z</time>
            </trkpt>
            <trkpt lon="99.351814" lat="14.026967">
                <ele>98.190000</ele>
                <time>2011-06-26T05:48:45Z</time>
            </trkpt>
            <trkpt lon="99.351659" lat="14.027084">
                <ele>97.230000</ele>
                <time>2011-06-26T05:48:51Z</time>
            </trkpt>
            <trkpt lon="99.349696" lat="14.027085">
                <ele>100.600000</ele>
                <time>2011-06-26T05:49:36Z</time>
            </trkpt>
            <trkpt lon="99.347126" lat="14.027150">
                <ele>101.080000</ele>
                <time>2011-06-26T05:50:27Z</time>
            </trkpt>
            <trkpt lon="99.346801" lat="14.026638">
                <ele>101.080000</ele>
                <time>2011-06-26T05:50:47Z</time>
            </trkpt>
            <trkpt lon="99.346874" lat="14.026353">
                <ele>101.560000</ele>
                <time>2011-06-26T05:50:58Z</time>
            </trkpt>
            <trkpt lon="99.346807" lat="14.026299">
                <ele>101.560000</ele>
                <time>2011-06-26T05:51:02Z</time>
            </trkpt>
            <trkpt lon="99.345841" lat="14.026220">
                <ele>102.520000</ele>
                <time>2011-06-26T05:51:22Z</time>
            </trkpt>
            <trkpt lon="99.344631" lat="14.026124">
                <ele>103.480000</ele>
                <time>2011-06-26T05:51:45Z</time>
            </trkpt>
            <trkpt lon="99.341722" lat="14.025889">
                <ele>105.880000</ele>
                <time>2011-06-26T05:52:37Z</time>
            </trkpt>
            <trkpt lon="99.341545" lat="14.026058">
                <ele>106.360000</ele>
                <time>2011-06-26T05:52:43Z</time>
            </trkpt>
            <trkpt lon="99.341490" lat="14.027400">
                <ele>108.290000</ele>
                <time>2011-06-26T05:53:15Z</time>
            </trkpt>
            <trkpt lon="99.341484" lat="14.027403">
                <ele>107.320000</ele>
                <time>2011-06-26T05:53:24Z</time>
            </trkpt>
        </trkseg>
    </trk>
</gpx>